sensor_id;sensor_type;location;lat;lon;timestamp;temperature;humidity
14301;DHT22;7234;59.306;18.024;2023-09-19T17:28:14;13.00;99.90
14301;DHT22;7234;59.306;18.024;2023-09-19T17:30:49;13.00;99.90
14301;DHT22;7234;59.306;18.024;2023-09-19T17:33:17;12.90;99.90
14301;DHT22;7234;59.306;18.024;2023-09-19T17:35:44;12.90;99.90
14301;DHT22;7234;59.306;18.024;2023-09-19T17:38:12;13.00;99.90
14301;DHT22;7234;59.306;18.024;2023-09-19T17:40:43;12.90;99.90
14301;DHT22;7234;59.306;18.024;2023-09-19T17:43:13;12.90;99.90
14301;DHT22;7234;59.306;18.024;2023-09-19T17:45:45;12.90;99.90
14301;DHT22;7234;59.306;18.024;2023-09-19T17:48:16;12.90;99.90
14301;DHT22;7234;59.306;18.024;2023-09-19T17:50:44;12.90;99.90
14301;DHT22;7234;59.306;18.024;2023-09-19T17:53:12;12.90;99.90
14301;DHT22;7234;59.306;18.024;2023-09-19T17:55:39;12.90;99.90
14301;DHT22;7234;59.306;18.024;2023-09-19T17:58:07;12.90;99.90
14301;DHT22;7234;59.306;18.024;2023-09-19T18:00:36;12.90;99.90
14301;DHT22;7234;59.306;18.024;2023-09-19T18:03:08;12.90;99.90
14301;DHT22;7234;59.306;18.024;2023-09-19T18:05:37;12.90;99.90
14301;DHT22;7234;59.306;18.024;2023-09-19T18:08:09;12.90;99.90
14301;DHT22;7234;59.306;18.024;2023-09-19T18:10:38;12.90;99.90
14301;DHT22;7234;59.306;18.024;2023-09-19T18:13:06;12.90;99.90
14301;DHT22;7234;59.306;18.024;2023-09-19T18:15:39;12.90;99.90
14301;DHT22;7234;59.306;18.024;2023-09-19T18:18:08;12.90;99.90
14301;DHT22;7234;59.306;18.024;2023-09-19T18:20:38;12.90;99.90
14301;DHT22;7234;59.306;18.024;2023-09-19T18:23:06;12.90;99.90
14301;DHT22;7234;59.306;18.024;2023-09-19T18:25:34;12.90;99.90
14301;DHT22;7234;59.306;18.024;2023-09-19T18:28:03;12.90;99.90
14301;DHT22;7234;59.306;18.024;2023-09-19T18:30:31;12.80;99.90
14301;DHT22;7234;59.306;18.024;2023-09-19T18:33:01;12.90;99.90
14301;DHT22;7234;59.306;18.024;2023-09-19T18:35:31;12.90;99.90
14301;DHT22;7234;59.306;18.024;2023-09-19T18:38:00;12.80;99.90
14301;DHT22;7234;59.306;18.024;2023-09-19T18:40:27;12.90;99.90
14301;DHT22;7234;59.306;18.024;2023-09-19T18:42:55;12.90;99.90
14301;DHT22;7234;59.306;18.024;2023-09-19T18:45:22;13.00;99.90
14301;DHT22;7234;59.306;18.024;2023-09-19T18:47:52;13.00;99.90
14301;DHT22;7234;59.306;18.024;2023-09-19T18:50:25;13.00;99.90
14301;DHT22;7234;59.306;18.024;2023-09-19T18:52:53;13.00;99.90
14301;DHT22;7234;59.306;18.024;2023-09-19T18:55:20;13.00;99.90
14301;DHT22;7234;59.306;18.024;2023-09-19T18:57:53;13.10;99.90
14301;DHT22;7234;59.306;18.024;2023-09-19T19:00:20;13.10;99.90
14301;DHT22;7234;59.306;18.024;2023-09-19T19:02:51;13.10;99.90
14301;DHT22;7234;59.306;18.024;2023-09-19T19:05:18;13.10;99.90
14301;DHT22;7234;59.306;18.024;2023-09-19T19:07:49;13.20;99.90
14301;DHT22;7234;59.306;18.024;2023-09-19T19:10:16;13.20;99.90
14301;DHT22;7234;59.306;18.024;2023-09-19T19:12:45;13.20;99.90
14301;DHT22;7234;59.306;18.024;2023-09-19T19:15:13;13.20;99.90
14301;DHT22;7234;59.306;18.024;2023-09-19T19:17:41;13.20;99.90
14301;DHT22;7234;59.306;18.024;2023-09-19T19:20:09;13.20;99.90
14301;DHT22;7234;59.306;18.024;2023-09-19T19:22:39;13.20;99.90
14301;DHT22;7234;59.306;18.024;2023-09-19T19:25:09;13.30;99.90
14301;DHT22;7234;59.306;18.024;2023-09-19T19:27:36;13.30;99.90
14301;DHT22;7234;59.306;18.024;2023-09-19T19:30:08;13.40;99.90
14301;DHT22;7234;59.306;18.024;2023-09-19T19:32:39;13.40;99.90
14301;DHT22;7234;59.306;18.024;2023-09-19T19:35:06;13.50;99.90
14301;DHT22;7234;59.306;18.024;2023-09-19T19:37:35;13.60;99.90
14301;DHT22;7234;59.306;18.024;2023-09-19T19:40:03;13.60;99.90
14301;DHT22;7234;59.306;18.024;2023-09-19T19:42:35;13.70;99.90
14301;DHT22;7234;59.306;18.024;2023-09-19T19:45:04;13.70;99.90
14301;DHT22;7234;59.306;18.024;2023-09-19T19:47:31;13.80;99.90
14301;DHT22;7234;59.306;18.024;2023-09-19T19:49:58;13.80;99.90
14301;DHT22;7234;59.306;18.024;2023-09-19T19:52:26;13.90;99.90
14301;DHT22;7234;59.306;18.024;2023-09-19T19:54:55;13.90;99.90
14301;DHT22;7234;59.306;18.024;2023-09-19T19:57:23;13.90;99.90
14301;DHT22;7234;59.306;18.024;2023-09-19T20:00:12;13.90;99.90
14301;DHT22;7234;59.306;18.024;2023-09-19T20:02:44;13.90;99.90
14301;DHT22;7234;59.306;18.024;2023-09-19T20:08:43;14.00;99.90
14301;DHT22;7234;59.306;18.024;2023-09-19T20:11:17;14.00;99.90
14301;DHT22;7234;59.306;18.024;2023-09-19T20:14:07;14.00;99.90
14301;DHT22;7234;59.306;18.024;2023-09-19T20:19:54;14.00;99.90
14301;DHT22;7234;59.306;18.024;2023-09-19T20:23:10;14.00;99.90
14301;DHT22;7234;59.306;18.024;2023-09-19T20:25:38;14.00;99.90
14301;DHT22;7234;59.306;18.024;2023-09-19T20:28:08;14.00;99.90
14301;DHT22;7234;59.306;18.024;2023-09-19T20:30:38;14.00;99.90
14301;DHT22;7234;59.306;18.024;2023-09-19T20:33:09;14.00;99.90
14301;DHT22;7234;59.306;18.024;2023-09-19T20:35:39;13.90;99.90
14301;DHT22;7234;59.306;18.024;2023-09-19T20:38:07;13.90;99.90
14301;DHT22;7234;59.306;18.024;2023-09-19T20:40:39;14.00;99.90
